Time;durP1;ratioP1;P1;durP2;ratioP2;P2;SDS_P1;SDS_P2;PMS_P1;PMS_P2;Temp;Humidity;BMP_temperature;BMP_pressure;BME280_temperature;BME280_humidity;BME280_pressure;Samples;Min_cycle;Max_cycle;Signal;HPM_P1;HPM_P2
2021/06/03 00:00:44;;;;;;;11.60;7.10;;;;;;;15.75;62.52;96581.69;5035395;28;20048;-71
2021/06/03 00:03:11;;;;;;;11.13;6.80;;;;;;;15.75;62.62;96576.19;5050585;28;20049;-71
2021/06/03 00:05:41;;;;;;;14.48;7.55;;;;;;;15.76;62.83;96577.78;5051185;28;20052;-71
2021/06/03 00:08:07;;;;;;;11.65;7.35;;;;;;;15.76;62.66;96580.53;5049779;28;20063;-70
2021/06/03 00:10:36;;;;;;;13.95;7.55;;;;;;;15.74;62.54;96578.16;5050874;28;20045;-71
2021/06/03 00:13:04;;;;;;;15.50;7.40;;;;;;;15.74;62.05;96578.16;5050558;28;20041;-70
2021/06/03 00:15:30;;;;;;;10.57;6.70;;;;;;;15.72;62.20;96580.44;5050843;28;20049;-72
2021/06/03 00:17:58;;;;;;;12.50;7.45;;;;;;;15.70;62.37;96579.19;5050588;28;20068;-72
2021/06/03 00:20:26;;;;;;;17.15;8.57;;;;;;;15.69;61.90;96574.84;5050235;28;20098;-71
2021/06/03 00:22:53;;;;;;;12.15;7.72;;;;;;;15.67;62.18;96583.44;5050705;28;20049;-71
2021/06/03 00:25:19;;;;;;;15.82;7.70;;;;;;;15.64;62.28;96581.34;5050097;28;20053;-71
2021/06/03 00:27:45;;;;;;;14.98;7.63;;;;;;;15.62;61.44;96575.41;5050372;28;20048;-71
2021/06/03 00:30:12;;;;;;;17.77;7.85;;;;;;;15.57;61.88;96578.38;5049641;28;20049;-72
2021/06/03 00:32:38;;;;;;;12.60;7.60;;;;;;;15.55;62.43;96577.91;5039621;28;20628;-71
2021/06/03 00:35:07;;;;;;;16.40;8.38;;;;;;;15.52;63.08;96579.41;5030103;28;20095;-72
2021/06/03 00:37:33;;;;;;;11.27;7.38;;;;;;;15.51;62.96;96582.50;5030327;28;20370;-71
2021/06/03 00:39:59;;;;;;;11.55;6.80;;;;;;;15.46;62.49;96580.00;5030433;28;20041;-71
2021/06/03 00:42:26;;;;;;;14.98;7.32;;;;;;;15.42;62.28;96584.56;5029850;28;20492;-71
2021/06/03 00:44:52;;;;;;;12.93;7.65;;;;;;;15.40;61.74;96584.91;5030500;28;20096;-72
2021/06/03 00:47:18;;;;;;;13.50;7.47;;;;;;;15.36;61.68;96587.53;5030264;28;20048;-71
2021/06/03 00:49:44;;;;;;;14.25;7.25;;;;;;;15.35;61.51;96582.41;5030302;28;20404;-71
2021/06/03 00:52:12;;;;;;;10.98;7.30;;;;;;;15.30;62.28;96580.66;5029827;28;20049;-72
2021/06/03 00:54:38;;;;;;;11.93;6.90;;;;;;;15.25;63.04;96575.41;5033195;28;20052;-71
2021/06/03 00:57:05;;;;;;;13.18;6.85;;;;;;;15.24;63.08;96584.75;5034115;28;20058;-71
2021/06/03 00:59:31;;;;;;;15.82;7.55;;;;;;;15.19;62.16;96587.75;5034111;28;20053;-71
2021/06/03 01:01:57;;;;;;;12.07;6.72;;;;;;;15.13;62.01;96589.09;5044428;28;20046;-71
2021/06/03 01:04:23;;;;;;;11.93;7.07;;;;;;;15.13;62.77;96600.06;5033739;28;20452;-71
2021/06/03 01:06:49;;;;;;;14.85;7.53;;;;;;;15.12;61.89;96596.53;5034151;28;20049;-71
2021/06/03 01:09:27;;;;;;;11.95;7.22;;;;;;;15.03;62.19;96597.78;5034005;28;20054;-71
2021/06/03 01:12:00;;;;;;;15.82;7.25;;;;;;;14.96;62.92;96605.78;5033932;28;20099;-71
2021/06/03 01:14:30;;;;;;;16.67;7.50;;;;;;;14.93;63.39;96607.25;5033586;28;20033;-71
2021/06/03 01:16:58;;;;;;;12.57;6.97;;;;;;;14.92;63.49;96602.09;5033783;28;20501;-71
2021/06/03 01:19:26;;;;;;;12.18;7.25;;;;;;;14.90;63.44;96612.63;5033763;28;20052;-71
2021/06/03 01:21:56;;;;;;;11.32;6.78;;;;;;;14.87;62.91;96612.13;5033922;28;20493;-71
2021/06/03 01:24:29;;;;;;;11.30;6.70;;;;;;;14.83;63.90;96613.97;5033457;28;20049;-71
2021/06/03 01:27:00;;;;;;;11.10;7.47;;;;;;;14.79;63.88;96613.03;5033632;28;20041;-72
2021/06/03 01:29:27;;;;;;;11.98;6.88;;;;;;;14.76;62.94;96616.44;5033176;28;20492;-71
2021/06/03 01:31:55;;;;;;;14.18;7.35;;;;;;;14.77;63.01;96620.00;5043705;28;20073;-71
2021/06/03 01:34:23;;;;;;;14.95;7.75;;;;;;;14.72;63.05;96621.03;5033137;28;20061;-71
2021/06/03 01:36:50;;;;;;;13.25;6.85;;;;;;;14.71;63.08;96618.59;5033689;28;20067;-71
2021/06/03 01:39:17;;;;;;;17.23;8.02;;;;;;;14.69;63.26;96629.91;5032987;28;20053;-71
2021/06/03 01:41:45;;;;;;;11.88;6.75;;;;;;;14.70;62.95;96636.19;5033783;28;20128;-71
2021/06/03 01:44:12;;;;;;;16.10;7.47;;;;;;;14.68;62.96;96639.28;5033080;28;20091;-70
2021/06/03 01:46:39;;;;;;;12.07;6.82;;;;;;;14.66;62.75;96633.31;5033398;28;20049;-70
2021/06/03 01:49:06;;;;;;;17.88;7.22;;;;;;;14.65;62.54;96639.94;5032890;28;20048;-70
2021/06/03 01:51:32;;;;;;;11.45;7.22;;;;;;;14.63;62.84;96642.22;5033143;28;20455;-71
2021/06/03 01:53:59;;;;;;;14.23;7.93;;;;;;;14.51;62.95;96643.00;5033655;28;20045;-71
2021/06/03 01:56:25;;;;;;;15.85;8.25;;;;;;;14.39;63.42;96642.88;5032787;28;20048;-71
2021/06/03 01:58:52;;;;;;;12.80;7.95;;;;;;;14.35;64.21;96642.78;5033177;28;20041;-71
2021/06/03 02:01:20;;;;;;;15.13;7.63;;;;;;;14.35;64.90;96647.44;5042359;28;20041;-70
2021/06/03 02:03:46;;;;;;;15.20;7.93;;;;;;;14.36;64.12;96649.84;5013237;28;20053;-71
2021/06/03 02:06:12;;;;;;;13.30;8.20;;;;;;;14.32;64.08;96651.66;5012699;28;20456;-71
2021/06/03 02:08:39;;;;;;;15.60;9.05;;;;;;;14.27;64.80;96654.59;5029759;28;20049;-70
2021/06/03 02:11:06;;;;;;;13.30;8.32;;;;;;;14.24;64.88;96652.50;5032885;28;20052;-71
2021/06/03 02:13:36;;;;;;;13.38;7.70;;;;;;;14.26;64.76;96655.75;5032872;28;20045;-71
2021/06/03 02:16:09;;;;;;;17.80;8.85;;;;;;;14.23;63.96;96653.66;5032122;28;20045;-71
2021/06/03 02:18:40;;;;;;;14.55;8.45;;;;;;;14.18;64.56;96653.84;5032959;28;20040;-71
2021/06/03 02:21:06;;;;;;;17.30;8.38;;;;;;;14.17;65.09;96656.94;5032578;28;20037;-71
2021/06/03 02:23:33;;;;;;;15.18;8.20;;;;;;;14.18;65.29;96659.31;5032936;28;20069;-71
2021/06/03 02:26:01;;;;;;;13.40;7.88;;;;;;;14.18;64.95;96653.84;5032743;28;20051;-71
2021/06/03 02:28:28;;;;;;;14.60;8.18;;;;;;;14.19;64.55;96655.44;5032224;28;20056;-71
2021/06/03 02:30:54;;;;;;;13.07;8.10;;;;;;;14.12;65.34;96649.72;5030876;28;20045;-71
2021/06/03 02:33:22;;;;;;;12.68;8.02;;;;;;;14.09;66.15;96650.38;5048940;28;20049;-70
2021/06/03 02:35:48;;;;;;;12.80;8.38;;;;;;;14.04;65.99;96645.09;5052767;28;20522;-71
2021/06/03 02:38:17;;;;;;;12.93;9.10;;;;;;;14.02;65.88;96655.59;5052164;28;20059;-71
2021/06/03 02:40:43;;;;;;;13.65;8.75;;;;;;;14.00;65.58;96646.91;5052592;28;20044;-71
2021/06/03 02:43:09;;;;;;;14.40;7.95;;;;;;;14.00;65.51;96641.44;5051717;28;20040;-71
2021/06/03 02:45:35;;;;;;;15.30;9.20;;;;;;;13.93;65.26;96646.63;5052054;28;20463;-71
2021/06/03 02:48:02;;;;;;;12.43;7.57;;;;;;;13.93;65.62;96641.16;5051733;28;20136;-71
2021/06/03 02:50:29;;;;;;;15.30;8.75;;;;;;;13.91;66.26;96648.91;5052212;28;20044;-71
2021/06/03 02:52:56;;;;;;;14.98;8.80;;;;;;;13.85;65.80;96656.50;5051805;28;20068;-71
2021/06/03 02:55:23;;;;;;;14.35;8.65;;;;;;;13.83;66.12;96654.09;5051658;28;20048;-71
2021/06/03 02:57:50;;;;;;;12.15;7.88;;;;;;;13.84;66.56;96654.91;5052062;28;20124;-71
2021/06/03 03:00:19;;;;;;;14.55;8.32;;;;;;;13.87;66.19;96658.91;5050184;28;20049;-71
2021/06/03 03:02:45;;;;;;;19.00;8.60;;;;;;;13.84;66.49;96666.66;5051948;28;20045;-71
2021/06/03 03:05:11;;;;;;;15.27;8.18;;;;;;;13.75;66.92;96668.63;5051704;28;20091;-71
2021/06/03 03:07:39;;;;;;;11.85;7.90;;;;;;;13.73;66.66;96670.91;5051807;28;20558;-71
2021/06/03 03:10:08;;;;;;;12.00;8.05;;;;;;;13.66;65.99;96675.28;5051600;28;20052;-71
2021/06/03 03:12:34;;;;;;;13.95;8.65;;;;;;;13.57;66.48;96672.56;5051874;28;20049;-71
2021/06/03 03:15:00;;;;;;;12.73;7.63;;;;;;;13.53;66.52;96677.13;5051659;28;20048;-71
2021/06/03 03:17:26;;;;;;;11.55;7.82;;;;;;;13.44;66.38;96674.41;5050760;28;20852;-71
2021/06/03 03:19:52;;;;;;;13.23;7.55;;;;;;;13.41;66.68;96680.53;5051587;28;20036;-71
2021/06/03 03:22:18;;;;;;;14.55;8.00;;;;;;;13.41;67.27;96680.53;5051103;28;20053;-70
2021/06/03 03:24:45;;;;;;;12.90;8.27;;;;;;;13.40;66.99;96683.59;5051501;28;20052;-71
2021/06/03 03:27:11;;;;;;;14.52;7.45;;;;;;;13.39;66.89;96679.28;5051147;28;20060;-71
2021/06/03 03:29:37;;;;;;;14.70;7.93;;;;;;;13.39;66.95;96676.53;5051400;28;20044;-71
2021/06/03 03:32:04;;;;;;;12.02;6.82;;;;;;;13.38;66.96;96674.94;5047991;28;20072;-71
2021/06/03 03:34:30;;;;;;;14.07;7.45;;;;;;;13.33;66.95;96684.13;5051557;28;20048;-71
2021/06/03 03:36:56;;;;;;;13.38;7.50;;;;;;;13.31;67.06;96687.19;5051222;28;20045;-70
2021/06/03 03:39:22;;;;;;;11.52;7.32;;;;;;;13.23;66.79;96690.75;5051045;28;20052;-70
2021/06/03 03:41:49;;;;;;;13.48;8.00;;;;;;;13.17;66.86;96686.56;5051302;28;20079;-70
2021/06/03 03:44:15;;;;;;;13.80;7.40;;;;;;;13.13;67.21;96685.59;5050709;28;20542;-71
2021/06/03 03:46:41;;;;;;;13.40;7.50;;;;;;;13.14;67.74;96687.19;5051150;28;20037;-70
2021/06/03 03:49:07;;;;;;;14.55;7.70;;;;;;;13.14;67.45;96698.13;5050950;28;20102;-71
2021/06/03 03:51:33;;;;;;;13.90;7.78;;;;;;;13.18;67.60;96701.81;5051061;28;20040;-71
2021/06/03 03:53:59;;;;;;;14.32;7.47;;;;;;;13.25;67.82;96704.88;5051370;28;20128;-70
2021/06/03 03:56:25;;;;;;;16.63;7.90;;;;;;;13.26;66.61;96706.50;5050728;28;20045;-70
2021/06/03 03:58:53;;;;;;;13.30;7.32;;;;;;;13.27;67.51;96708.13;5051050;28;20044;-71
2021/06/03 04:01:19;;;;;;;12.63;7.30;;;;;;;13.27;67.15;96713.59;5049391;28;20041;-70
2021/06/03 04:03:45;;;;;;;13.60;6.90;;;;;;;13.31;67.56;96709.06;5011594;28;20092;-70
2021/06/03 04:06:11;;;;;;;11.82;6.90;;;;;;;13.32;67.24;96713.41;5010828;28;20050;-71
2021/06/03 04:08:37;;;;;;;13.75;7.47;;;;;;;13.35;67.45;96714.66;5011484;28;20052;-70
2021/06/03 04:11:03;;;;;;;13.98;7.72;;;;;;;13.36;66.83;96710.00;5010978;28;20038;-70
2021/06/03 04:13:29;;;;;;;13.02;6.65;;;;;;;13.38;66.73;96718.69;5011354;28;20053;-71
2021/06/03 04:15:57;;;;;;;13.70;6.93;;;;;;;13.42;66.50;96719.66;5011243;28;20520;-70
2021/06/03 04:18:24;;;;;;;11.57;6.45;;;;;;;13.44;66.66;96718.19;5010742;28;20052;-70
2021/06/03 04:20:50;;;;;;;13.93;6.80;;;;;;;13.46;66.58;96717.84;5011112;28;20413;-70
2021/06/03 04:23:16;;;;;;;12.95;6.72;;;;;;;13.52;66.55;96717.38;5010846;28;20056;-70
2021/06/03 04:25:42;;;;;;;9.73;6.05;;;;;;;13.56;67.13;96722.97;5011242;28;20449;-69
2021/06/03 04:28:08;;;;;;;9.23;6.15;;;;;;;13.60;67.08;96732.13;5013034;28;20050;-70
2021/06/03 04:30:35;;;;;;;12.50;6.43;;;;;;;13.64;66.70;96729.53;5027759;28;20484;-70
2021/06/03 04:33:03;;;;;;;8.48;5.75;;;;;;;13.70;67.34;96726.28;5054343;28;20047;-70
2021/06/03 04:35:29;;;;;;;11.75;6.82;;;;;;;13.78;67.20;96733.66;5054794;28;20052;-70
2021/06/03 04:37:55;;;;;;;10.25;6.10;;;;;;;13.80;67.30;96728.66;5054587;28;20442;-71
2021/06/03 04:40:23;;;;;;;10.07;6.05;;;;;;;13.86;66.84;96728.47;5054276;28;22002;-70
2021/06/03 04:42:51;;;;;;;10.50;5.78;;;;;;;13.92;66.09;96721.69;5054706;28;20049;-71
2021/06/03 04:45:17;;;;;;;14.00;6.35;;;;;;;13.97;66.35;96729.69;5053885;28;20053;-70
2021/06/03 04:47:44;;;;;;;10.05;5.40;;;;;;;14.05;65.48;96732.41;5054593;28;20095;-71
2021/06/03 04:50:14;;;;;;;11.13;5.55;;;;;;;14.11;64.42;96733.00;5054058;28;20053;-71
2021/06/03 04:52:41;;;;;;;13.68;6.55;;;;;;;14.16;64.02;96732.81;5054007;28;20427;-71
2021/06/03 04:55:09;;;;;;;12.13;6.03;;;;;;;14.21;64.49;96734.56;5053947;28;20049;-71
2021/06/03 04:57:36;;;;;;;10.98;5.95;;;;;;;14.28;63.34;96741.09;5054112;28;20110;-71
2021/06/03 05:00:07;;;;;;;15.48;6.38;;;;;;;14.30;64.55;96733.38;5051020;28;20041;-71
2021/06/03 05:02:33;;;;;;;14.90;5.95;;;;;;;14.34;64.77;96734.28;5034765;28;20045;-71
2021/06/03 05:04:59;;;;;;;9.95;5.97;;;;;;;14.42;65.39;96743.59;5054113;28;20044;-71
2021/06/03 05:07:26;;;;;;;12.23;6.10;;;;;;;14.50;63.51;96747.44;5053525;28;20045;-71
2021/06/03 05:09:52;;;;;;;14.90;5.70;;;;;;;14.58;63.16;96752.06;5054130;28;20045;-71
2021/06/03 05:12:19;;;;;;;10.65;5.78;;;;;;;14.64;63.53;96753.47;5053682;28;20049;-71
2021/06/03 05:14:45;;;;;;;11.52;5.43;;;;;;;14.72;63.95;96749.88;5053610;28;20036;-70
2021/06/03 05:17:11;;;;;;;9.40;5.60;;;;;;;14.78;64.28;96759.50;5053216;28;20049;-71
2021/06/03 05:19:37;;;;;;;11.60;5.95;;;;;;;14.83;62.94;96762.03;5053963;28;20041;-72
2021/06/03 05:22:04;;;;;;;10.45;5.45;;;;;;;14.93;63.78;96760.81;5053325;28;20072;-71
2021/06/03 05:24:31;;;;;;;8.95;5.25;;;;;;;14.99;63.10;96764.16;5053590;28;20045;-70
2021/06/03 05:26:58;;;;;;;9.98;5.25;;;;;;;15.07;60.18;96768.75;5053896;28;20431;-72
2021/06/03 05:29:24;;;;;;;10.73;4.93;;;;;;;15.10;60.02;96766.13;5053051;28;20052;-70
2021/06/03 05:31:52;;;;;;;9.55;5.00;;;;;;;15.17;61.06;96764.78;5052619;28;20045;-71
2021/06/03 05:34:19;;;;;;;9.57;5.03;;;;;;;15.24;61.85;96773.25;5053276;28;20045;-70
2021/06/03 05:36:45;;;;;;;10.10;5.25;;;;;;;15.30;60.96;96766.44;5053549;28;20048;-70
2021/06/03 05:39:11;;;;;;;9.85;5.00;;;;;;;15.38;61.18;96766.34;5052312;28;20044;-72
2021/06/03 05:41:40;;;;;;;10.70;5.43;;;;;;;15.49;60.79;96771.41;5053644;28;20041;-70
2021/06/03 05:44:07;;;;;;;9.02;5.20;;;;;;;15.61;60.85;96774.19;5052854;28;20069;-71
2021/06/03 05:46:33;;;;;;;9.82;5.38;;;;;;;15.68;60.28;96782.69;5053221;28;20408;-71
2021/06/03 05:49:00;;;;;;;7.35;5.13;;;;;;;15.76;59.78;96779.03;5053454;28;20123;-71
2021/06/03 05:51:26;;;;;;;10.98;5.65;;;;;;;15.84;60.17;96778.13;5052904;28;20045;-70
2021/06/03 05:53:53;;;;;;;11.85;5.80;;;;;;;15.93;59.11;96785.47;5053305;28;20041;-71
2021/06/03 05:56:19;;;;;;;10.25;5.28;;;;;;;16.02;56.38;96784.19;5052716;28;20049;-71
2021/06/03 05:58:47;;;;;;;12.27;5.95;;;;;;;16.06;57.99;96781.56;5052696;28;20131;-71
2021/06/03 06:01:13;;;;;;;9.85;5.50;;;;;;;16.15;56.61;96780.31;5049493;28;20040;-71
2021/06/03 06:03:41;;;;;;;13.15;6.13;;;;;;;16.25;57.34;96792.00;5052831;28;20041;-71
2021/06/03 06:06:24;;;;;;;13.95;6.25;;;;;;;16.37;57.50;96784.53;5052426;28;20121;-71
2021/06/03 06:08:51;;;;;;;10.02;6.20;;;;;;;16.48;55.85;96786.81;5052903;28;20051;-71
2021/06/03 06:11:17;;;;;;;8.95;5.90;;;;;;;16.53;55.95;96794.84;5052536;28;20581;-71
2021/06/03 06:13:44;;;;;;;14.30;7.10;;;;;;;16.57;56.72;96787.50;5052738;28;20041;-71
2021/06/03 06:16:11;;;;;;;11.02;6.35;;;;;;;16.61;56.48;96782.94;5052297;28;20532;-71
2021/06/03 06:18:39;;;;;;;10.93;6.60;;;;;;;16.67;57.72;96787.03;5052569;28;20421;-71
2021/06/03 06:21:05;;;;;;;8.07;6.10;;;;;;;16.73;57.44;96784.88;5052360;28;20036;-70
2021/06/03 06:23:34;;;;;;;13.63;6.78;;;;;;;16.78;57.00;96785.44;5052496;28;20044;-71
2021/06/03 06:26:01;;;;;;;11.18;6.90;;;;;;;16.84;57.33;96781.28;5052563;28;20052;-71
2021/06/03 06:28:27;;;;;;;12.93;6.43;;;;;;;16.98;58.40;96785.63;5052168;28;20044;-71
2021/06/03 06:30:53;;;;;;;13.60;7.00;;;;;;;17.06;58.21;96792.91;5049206;28;20515;-71
2021/06/03 06:33:21;;;;;;;9.23;6.05;;;;;;;17.16;58.69;96798.72;5051989;28;20037;-70
2021/06/03 06:35:49;;;;;;;13.85;6.95;;;;;;;17.28;58.28;96795.13;5052260;28;20103;-70
2021/06/03 06:38:16;;;;;;;14.38;6.55;;;;;;;17.36;59.54;96796.91;5051803;28;20080;-71
2021/06/03 06:40:42;;;;;;;11.95;6.85;;;;;;;17.47;57.68;96792.50;5052561;28;20045;-71
2021/06/03 06:43:08;;;;;;;12.85;6.10;;;;;;;17.57;56.95;96804.16;5051845;28;20651;-71
2021/06/03 06:45:37;;;;;;;12.45;6.38;;;;;;;17.65;58.83;96808.72;5052417;28;20036;-71
2021/06/03 06:48:04;;;;;;;9.25;5.32;;;;;;;17.76;58.83;96814.53;5050428;28;20045;-71
2021/06/03 06:50:32;;;;;;;13.50;6.35;;;;;;;17.85;57.74;96818.72;5051362;28;20041;-71
2021/06/03 06:52:59;;;;;;;12.98;6.45;;;;;;;17.90;57.43;96815.69;5051758;28;20075;-71
2021/06/03 06:55:26;;;;;;;12.93;6.50;;;;;;;17.95;58.36;96818.19;5051616;28;20102;-71
2021/06/03 06:57:53;;;;;;;10.73;6.10;;;;;;;18.02;58.04;96822.31;5051872;28;20045;-71
2021/06/03 07:00:21;;;;;;;11.18;6.10;;;;;;;18.10;57.67;96818.56;5048618;28;20041;-70
2021/06/03 07:02:47;;;;;;;10.73;6.50;;;;;;;18.22;57.86;96818.50;5052040;28;20060;-70
2021/06/03 07:05:13;;;;;;;14.45;6.90;;;;;;;18.37;58.39;96827.88;5051408;28;20621;-71
2021/06/03 07:07:41;;;;;;;14.27;7.25;;;;;;;18.48;58.98;96823.44;5051785;28;20041;-71
2021/06/03 07:10:09;;;;;;;11.15;6.38;;;;;;;18.63;58.62;96832.84;5051458;28;20049;-70
2021/06/03 07:12:36;;;;;;;10.40;6.35;;;;;;;18.67;58.70;96830.97;5052001;28;20041;-72
2021/06/03 07:15:03;;;;;;;9.73;5.95;;;;;;;18.74;58.87;96826.47;5051139;28;20559;-72
2021/06/03 07:17:29;;;;;;;11.60;7.13;;;;;;;18.83;59.39;96817.97;5051560;28;20041;-70
2021/06/03 07:19:55;;;;;;;12.48;7.32;;;;;;;18.95;60.21;96820.63;5051454;28;20124;-72
2021/06/03 07:22:21;;;;;;;12.43;6.43;;;;;;;19.07;58.82;96818.88;5051052;28;21274;-71
2021/06/03 07:24:48;;;;;;;12.35;6.53;;;;;;;19.19;58.33;96824.25;5051591;28;20044;-71
2021/06/03 07:27:14;;;;;;;10.27;6.68;;;;;;;19.21;57.53;96821.91;5051190;28;20081;-72
2021/06/03 07:29:41;;;;;;;11.18;6.30;;;;;;;19.30;58.04;96825.28;5051476;28;20041;-72
2021/06/03 07:32:07;;;;;;;10.70;5.93;;;;;;;19.41;58.50;96823.53;5047924;28;20052;-72
2021/06/03 07:34:34;;;;;;;13.13;7.22;;;;;;;19.44;57.25;96825.56;5051356;28;20041;-73
2021/06/03 07:37:00;;;;;;;8.52;5.85;;;;;;;19.48;57.02;96831.97;5051420;28;20041;-71
2021/06/03 07:39:27;;;;;;;10.90;5.85;;;;;;;19.59;57.82;96832.22;5051287;28;20052;-71
2021/06/03 07:41:54;;;;;;;10.02;6.18;;;;;;;19.75;59.01;96835.69;5051332;28;20488;-71
2021/06/03 07:44:21;;;;;;;10.60;6.80;;;;;;;19.86;57.33;96841.41;5050732;28;20052;-71
2021/06/03 07:46:47;;;;;;;10.90;6.57;;;;;;;19.92;57.88;96834.41;5051254;28;20037;-71
2021/06/03 07:49:13;;;;;;;12.50;6.75;;;;;;;20.00;59.27;96838.91;5050752;28;20048;-71
2021/06/03 07:51:40;;;;;;;10.40;7.60;;;;;;;20.13;60.20;96830.44;5050925;28;20045;-71
2021/06/03 07:54:07;;;;;;;11.00;6.30;;;;;;;20.28;60.15;96835.81;5050827;28;20053;-71
2021/06/03 07:56:35;;;;;;;12.05;6.93;;;;;;;20.43;57.28;96825.81;5051119;28;20045;-71
2021/06/03 07:59:03;;;;;;;10.20;6.50;;;;;;;20.56;56.95;96829.97;5051088;28;20045;-71
2021/06/03 08:01:29;;;;;;;11.52;6.43;;;;;;;20.75;55.29;96836.59;5047745;28;20048;-71
2021/06/03 08:03:55;;;;;;;10.13;6.43;;;;;;;20.91;56.25;96837.22;5057394;28;20049;-71
2021/06/03 08:06:21;;;;;;;12.45;6.30;;;;;;;21.18;58.67;96831.66;5056960;28;20060;-71
2021/06/03 08:08:48;;;;;;;9.90;6.72;;;;;;;21.57;52.11;96837.75;5057659;28;20045;-72
2021/06/03 08:11:14;;;;;;;12.02;6.88;;;;;;;22.92;49.48;96833.47;5056907;28;20041;-72
2021/06/03 08:13:40;;;;;;;11.18;6.47;;;;;;;24.02;46.91;96837.94;5057344;28;20079;-71
2021/06/03 08:16:07;;;;;;;10.23;6.38;;;;;;;24.95;45.36;96829.63;5057065;28;20045;-71
2021/06/03 08:18:33;;;;;;;10.40;6.22;;;;;;;26.13;41.94;96824.41;5057385;28;20041;-72
2021/06/03 08:21:02;;;;;;;9.43;6.50;;;;;;;26.54;38.83;96823.75;5057382;28;20037;-72
2021/06/03 08:23:29;;;;;;;13.05;7.35;;;;;;;27.04;38.77;96828.84;5057168;28;20044;-72
2021/06/03 08:25:56;;;;;;;11.65;5.55;;;;;;;27.69;38.11;96824.16;5057397;28;20103;-72
2021/06/03 08:28:23;;;;;;;10.18;5.93;;;;;;;28.29;35.46;96828.13;5056850;28;20503;-72
2021/06/03 08:30:49;;;;;;;10.80;6.53;;;;;;;28.47;34.84;96827.13;5056040;28;20041;-72
2021/06/03 08:33:16;;;;;;;14.32;6.38;;;;;;;28.80;34.33;96823.34;5056734;28;20060;-72
2021/06/03 08:35:43;;;;;;;11.85;5.85;;;;;;;29.20;34.98;96829.06;5057381;28;20052;-72
2021/06/03 08:38:10;;;;;;;8.25;5.30;;;;;;;29.36;34.64;96825.56;5056692;28;20087;-72
2021/06/03 08:40:40;;;;;;;12.18;6.22;;;;;;;29.63;34.79;96825.44;5057237;28;20056;-72
2021/06/03 08:43:07;;;;;;;11.85;6.03;;;;;;;30.09;32.90;96820.84;5056644;28;20048;-72
2021/06/03 08:45:36;;;;;;;15.38;5.90;;;;;;;30.23;32.38;96814.16;5056962;28;20052;-72
2021/06/03 08:48:03;;;;;;;20.67;7.28;;;;;;;30.64;31.67;96821.97;5056361;28;20045;-72
2021/06/03 08:50:32;;;;;;;14.32;5.75;;;;;;;30.90;30.20;96818.13;5057093;28;20041;-71
2021/06/03 08:53:00;;;;;;;10.57;6.00;;;;;;;30.74;30.08;96817.34;5056827;28;20077;-71
2021/06/03 08:58:14;;;;;;;9.43;5.60;;;;;;;30.24;31.80;96827.75;5056661;28;20071;-71
2021/06/03 09:00:43;;;;;;;11.50;6.53;;;;;;;30.01;31.15;96816.59;5052590;28;20041;-71
2021/06/03 09:03:10;;;;;;;6.60;5.15;;;;;;;29.87;34.87;96826.94;5056452;28;20049;-71
2021/06/03 09:05:39;;;;;;;12.82;6.55;;;;;;;29.85;36.24;96822.97;5056755;28;20045;-71
2021/06/03 09:08:16;;;;;;;9.55;5.68;;;;;;;29.69;35.06;96820.91;5056458;28;20617;-71
2021/06/03 09:10:43;;;;;;;12.75;6.38;;;;;;;29.31;34.76;96828.88;5056874;28;20642;-72
2021/06/03 09:13:14;;;;;;;10.93;6.20;;;;;;;29.17;37.21;96823.53;5055896;28;20055;-72
2021/06/03 09:15:43;;;;;;;12.73;6.55;;;;;;;29.13;35.54;96818.00;5053094;28;20067;-72
2021/06/03 09:18:10;;;;;;;11.90;7.00;;;;;;;29.03;38.19;96819.00;5053132;28;20052;-72
2021/06/03 09:20:40;;;;;;;17.10;6.63;;;;;;;28.80;36.79;96806.53;5053540;28;20048;-72
2021/06/03 09:23:06;;;;;;;8.70;5.70;;;;;;;28.39;37.37;96806.03;5053151;28;20532;-72
2021/06/03 09:25:40;;;;;;;13.02;6.78;;;;;;;28.12;38.39;96806.00;5053436;28;20496;-71
2021/06/03 09:28:19;;;;;;;15.07;7.10;;;;;;;27.85;38.59;96808.81;5052917;28;20146;-71
2021/06/03 09:31:13;;;;;;;14.35;6.88;;;;;;;27.65;37.09;96806.63;5052311;28;20119;-71
2021/06/03 09:34:05;;;;;;;13.98;6.93;;;;;;;27.51;37.68;96807.63;5020430;28;20045;-72
2021/06/03 09:36:37;;;;;;;11.88;6.15;;;;;;;27.41;39.97;96802.94;5029446;28;20052;-70
2021/06/03 09:39:15;;;;;;;10.90;6.38;;;;;;;27.35;42.18;96809.38;5032973;28;20207;-72
2021/06/03 09:41:45;;;;;;;12.70;5.97;;;;;;;27.37;42.14;96804.97;5033336;28;20072;-72
2021/06/03 09:44:14;;;;;;;8.80;5.22;;;;;;;27.37;38.47;96807.00;5032787;28;20393;-72
2021/06/03 09:46:43;;;;;;;11.88;6.00;;;;;;;27.19;40.51;96804.38;5033270;28;20095;-72
2021/06/03 09:49:16;;;;;;;12.63;5.97;;;;;;;26.98;41.01;96803.38;5032508;28;20049;-73
2021/06/03 09:51:46;;;;;;;12.10;5.68;;;;;;;26.91;43.80;96802.66;5033083;28;20095;-72
2021/06/03 09:54:14;;;;;;;9.40;4.90;;;;;;;26.90;39.66;96801.09;5032424;28;20042;-72
2021/06/03 09:56:41;;;;;;;12.50;4.78;;;;;;;26.94;39.25;96801.84;5033272;28;20060;-72
2021/06/03 09:59:17;;;;;;;7.53;4.20;;;;;;;26.93;39.17;96801.03;5032495;28;20045;-72
2021/06/03 10:01:46;;;;;;;12.15;5.10;;;;;;;27.02;37.95;96797.75;5047135;28;20043;-72
2021/06/03 10:04:14;;;;;;;7.93;4.07;;;;;;;27.02;35.70;96803.34;5052436;28;20110;-72
2021/06/03 10:07:00;;;;;;;11.05;4.50;;;;;;;27.13;37.35;96798.44;5052941;28;20480;-72
2021/06/03 10:09:45;;;;;;;10.15;4.80;;;;;;;27.11;37.66;96794.50;5052388;28;20049;-72
2021/06/03 10:12:15;;;;;;;10.35;4.50;;;;;;;27.10;34.74;96790.91;5051991;28;20103;-72
2021/06/03 10:14:43;;;;;;;10.77;4.28;;;;;;;26.84;37.66;96800.75;5052593;28;20064;-72
2021/06/03 10:17:17;;;;;;;7.07;3.60;;;;;;;26.90;36.36;96807.47;5052349;28;20045;-72
2021/06/03 10:19:43;;;;;;;9.95;4.55;;;;;;;26.98;35.74;96803.38;5052495;28;20416;-73
2021/06/03 10:22:16;;;;;;;9.60;4.20;;;;;;;27.18;39.32;96803.59;5052066;28;20111;-72
2021/06/03 10:25:06;;;;;;;;;;;;;;;27.30;37.08;96803.06;5052895;28;20037;-72
2021/06/03 10:27:34;;;;;;;10.45;3.83;;;;;;;27.39;37.59;96801.75;5052267;28;20383;-72
2021/06/03 10:30:01;;;;;;;14.30;5.22;;;;;;;27.53;35.12;96807.19;5049790;28;20048;-72
2021/06/03 10:32:29;;;;;;;8.52;4.07;;;;;;;27.54;34.15;96809.56;5051547;28;20047;-72
2021/06/03 10:34:56;;;;;;;8.68;4.05;;;;;;;27.51;33.19;96801.19;5052124;28;20090;-72
2021/06/03 10:37:25;;;;;;;8.07;3.70;;;;;;;27.51;35.50;96798.41;5051573;28;20503;-72
2021/06/03 10:39:53;;;;;;;9.38;4.10;;;;;;;27.54;30.84;96800.38;5052043;28;20728;-72
2021/06/03 10:42:21;;;;;;;7.70;3.60;;;;;;;27.38;31.21;96800.19;5051588;28;20576;-72
2021/06/03 10:44:48;;;;;;;11.07;3.97;;;;;;;27.19;34.70;96796.00;5051966;28;20049;-72
2021/06/03 10:47:16;;;;;;;9.85;3.65;;;;;;;27.20;33.23;96797.56;5051679;28;20148;-72
2021/06/03 10:49:43;;;;;;;7.78;3.47;;;;;;;27.31;36.62;96801.84;5051895;28;20041;-72
2021/06/03 10:52:11;;;;;;;7.47;3.58;;;;;;;27.41;31.83;96802.16;5051219;28;20056;-72
2021/06/03 10:54:45;;;;;;;9.48;3.92;;;;;;;27.41;28.94;96796.56;5051925;28;20041;-72
2021/06/03 10:57:13;;;;;;;7.78;3.40;;;;;;;27.30;33.29;96785.47;5051518;28;20045;-71
2021/06/03 10:59:39;;;;;;;6.05;3.20;;;;;;;27.42;36.54;96792.53;5051862;28;20037;-71
2021/06/03 11:02:07;;;;;;;6.68;3.45;;;;;;;27.51;33.50;96790.84;5048256;28;20064;-72
2021/06/03 11:04:34;;;;;;;7.75;3.25;;;;;;;27.54;32.89;96794.78;5051650;28;20075;-70
2021/06/03 11:07:01;;;;;;;8.15;2.90;;;;;;;27.62;30.07;96779.50;5051450;28;20045;-71
2021/06/03 11:09:29;;;;;;;8.35;3.20;;;;;;;27.67;33.77;96787.44;5051332;28;20041;-72
2021/06/03 11:12:17;;;;;;;6.68;3.30;;;;;;;27.56;30.15;96781.97;5051646;28;20045;-73
2021/06/03 11:15:10;;;;;;;6.00;2.63;;;;;;;27.51;29.37;96776.84;5051379;28;20087;-72
2021/06/03 11:18:05;;;;;;;10.93;3.25;;;;;;;27.49;29.45;96781.25;5051211;28;20068;-72
2021/06/03 11:20:42;;;;;;;9.85;3.42;;;;;;;27.57;34.92;96777.16;5015743;28;20048;-71
2021/06/03 11:23:43;;;;;;;9.52;3.22;;;;;;;27.63;27.83;96780.28;5050997;28;20052;-71
2021/06/03 11:26:30;;;;;;;7.28;3.08;;;;;;;27.59;30.09;96777.53;5051054;28;20048;-71
2021/06/03 11:29:09;;;;;;;9.15;3.30;;;;;;;27.69;31.01;96771.00;5051063;28;20045;-71
2021/06/03 11:31:35;;;;;;;8.15;3.25;;;;;;;27.53;28.58;96782.81;5047998;28;20041;-71
2021/06/03 11:34:06;;;;;;;6.80;3.15;;;;;;;27.33;30.57;96779.06;5051417;28;20098;-71